Dades de l'estació automàtica Castell d'Aro
Resum diari
21:30 TU| Temperatura mitjana | 17.0 °C | |
|---|---|---|
| Temperatura màxima | 20.5 °C | 8:05 TU |
| Temperatura mínima | 14.4 °C | 4:00 TU |
| Humitat relativa mitjana | 93% | |
| Precipitació acumulada | 1.8 mm | |
| Ratxa màxima del vent (10 m) | 30.2 km/h - 202º | 13:24 TU |
| Pressió atmosfèrica mitjana | 1012.1 hPa | |
| Irradiació solar global | 9.6 MJ/m2 | |
El tram horari està expressat en Temps Universal (TU). Cal sumar una hora en horari d'hivern i dues en horari d'estiu per passar a l'hora oficial.
Castell d'Aro
| Municipi | Castell d'Aro, Platja d'Aro i s'Agaró |
|---|---|
| Comarca | Baix Empordà |
| Altitud | 14 m |
| Data alta | 10.05.2001 |
| Estat actual | Operativa |
| Període TU |
TM °C |
TX °C |
TN °C |
HRM % |
PPT mm |
VVM (10 m) km/h |
DVM (10 m) graus |
VVX (10 m) km/h |
PM hPa |
RS W/m2 |
|---|---|---|---|---|---|---|---|---|---|---|
| 00:00 - 00:30 | 15.8 | 15.9 | 15.7 | 100 | 0.0 | 2.5 | 267 | 5.4 | 1014.0 | 0 |
| 00:30 - 01:00 | 15.6 | 15.7 | 15.4 | 100 | 0.0 | 3.2 | 245 | 7.2 | 1013.7 | 0 |
| 01:00 - 01:30 | 15.2 | 15.5 | 14.8 | 100 | 0.0 | 4.3 | 258 | 7.9 | 1013.6 | 0 |
| 01:30 - 02:00 | 14.9 | 15.1 | 14.8 | 100 | 0.0 | 4.7 | 249 | 8.3 | 1013.8 | 0 |
| 02:00 - 02:30 | 14.9 | 15.0 | 14.9 | 100 | 0.0 | 4.7 | 253 | 8.6 | 1013.6 | 0 |
| 02:30 - 03:00 | 14.8 | 14.9 | 14.8 | 100 | 0.0 | 3.2 | 251 | 5.4 | 1013.3 | 0 |
| 03:00 - 03:30 | 14.6 | 14.7 | 14.4 | 100 | 0.0 | 4.0 | 270 | 9.0 | 1013.3 | 0 |
| 03:30 - 04:00 | 14.5 | 14.6 | 14.4 | 100 | 0.0 | 2.9 | 272 | 5.4 | 1013.2 | 0 |
| 04:00 - 04:30 | 14.5 | 14.6 | 14.4 | 100 | 0.0 | 4.7 | 262 | 8.3 | 1012.9 | 0 |
| 04:30 - 05:00 | 14.6 | 14.6 | 14.5 | 100 | 0.0 | 3.6 | 260 | 7.6 | 1012.9 | 1 |
| 05:00 - 05:30 | 14.9 | 15.9 | 14.6 | 100 | 0.0 | 2.2 | 215 | 13.0 | 1012.7 | 17 |
| 05:30 - 06:00 | 16.9 | 17.3 | 16.1 | 92 | 0.0 | 6.5 | 222 | 15.1 | 1012.5 | 122 |
| 06:00 - 06:30 | 17.6 | 18.2 | 17.2 | 87 | 0.0 | 3.6 | 276 | 12.2 | 1012.5 | 206 |
| 06:30 - 07:00 | 18.3 | 18.7 | 18.1 | 82 | 0.0 | 7.6 | 185 | 15.8 | 1012.3 | 303 |
| 07:00 - 07:30 | 19.0 | 19.5 | 18.6 | 75 | 0.0 | 9.4 | 199 | 17.3 | 1012.3 | 400 |
| 07:30 - 08:00 | 19.7 | 20.4 | 19.3 | 72 | 0.0 | 9.7 | 198 | 20.2 | 1012.1 | 498 |
| 08:00 - 08:30 | 19.8 | 20.5 | 19.3 | 70 | 0.0 | 13.0 | 177 | 23.8 | 1012.0 | 436 |
| 08:30 - 09:00 | 19.3 | 19.6 | 19.1 | 72 | 0.0 | 12.6 | 187 | 24.5 | 1012.0 | 365 |
| 09:00 - 09:30 | 19.3 | 19.8 | 19.1 | 73 | 0.0 | 15.1 | 178 | 27.4 | 1012.2 | 446 |
| 09:30 - 10:00 | 19.6 | 20.1 | 19.4 | 74 | 0.0 | 11.9 | 165 | 24.8 | 1012.4 | 490 |
| 10:00 - 10:30 | (s/d) | (s/d) | (s/d) | (s/d) | (s/d) | (s/d) | (s/d) | (s/d) | (s/d) | (s/d) |
| 10:30 - 11:00 | (s/d) | (s/d) | (s/d) | (s/d) | (s/d) | (s/d) | (s/d) | (s/d) | (s/d) | (s/d) |
| 11:00 - 11:30 | (s/d) | (s/d) | (s/d) | (s/d) | (s/d) | (s/d) | (s/d) | (s/d) | (s/d) | (s/d) |
| 11:30 - 12:00 | (s/d) | (s/d) | (s/d) | (s/d) | (s/d) | (s/d) | (s/d) | (s/d) | (s/d) | (s/d) |
| 12:00 - 12:30 | 19.3 | 19.8 | 19.0 | 82 | 0.0 | 10.8 | 171 | 23.0 | 1012.1 | 329 |
| 12:30 - 13:00 | 19.8 | 20.2 | 19.3 | 80 | 0.0 | 12.2 | 168 | 24.8 | 1011.9 | 461 |
| 13:00 - 13:30 | 19.7 | 20.0 | 19.3 | 81 | 0.0 | 10.8 | 191 | 30.2 | 1011.7 | 367 |
| 13:30 - 14:00 | 19.1 | 19.6 | 18.9 | 84 | 0.0 | 13.0 | 187 | 25.6 | 1011.7 | 204 |
| 14:00 - 14:30 | 18.0 | 18.8 | 17.6 | 95 | 0.7 | 11.2 | 199 | 27.0 | 1011.6 | 63 |
| 14:30 - 15:00 | 17.6 | 17.7 | 17.5 | 100 | 0.3 | 5.4 | 233 | 13.7 | 1011.4 | 37 |
| 15:00 - 15:30 | 17.7 | 18.0 | 17.5 | 100 | 0.3 | 7.9 | 219 | 17.6 | 1011.2 | 157 |
| 15:30 - 16:00 | 17.8 | 17.9 | 17.7 | 100 | 0.0 | 10.4 | 201 | 20.9 | 1011.4 | 138 |
| 16:00 - 16:30 | 17.6 | 17.7 | 17.5 | 100 | 0.3 | 7.2 | 216 | 17.6 | 1011.2 | 95 |
| 16:30 - 17:00 | 17.1 | 17.6 | 16.6 | 100 | 0.0 | 10.1 | 192 | 19.1 | 1011.2 | 119 |
| 17:00 - 17:30 | 16.7 | 16.8 | 16.6 | 99 | 0.0 | 8.6 | 195 | 15.1 | 1010.9 | 78 |
| 17:30 - 18:00 | 16.7 | 16.8 | 16.6 | 99 | 0.0 | 4.0 | 213 | 11.5 | 1010.6 | 13 |
| 18:00 - 18:30 | 16.7 | 16.9 | 16.6 | 99 | 0.1 | 4.3 | 246 | 9.7 | 1010.3 | 22 |
| 18:30 - 19:00 | 16.7 | 16.9 | 16.7 | 100 | 0.0 | 5.4 | 228 | 10.1 | 1010.5 | 3 |
| 19:00 - 19:30 | 16.7 | 16.8 | 16.6 | 100 | 0.0 | 3.2 | 216 | 7.2 | 1010.8 | 0 |
| 19:30 - 20:00 | 16.5 | 16.6 | 16.5 | 100 | 0.0 | 2.2 | 206 | 6.5 | 1011.2 | 0 |
| 20:00 - 20:30 | 16.1 | 16.4 | 15.8 | 100 | 0.0 | 3.6 | 219 | 7.9 | 1011.5 | 0 |
| 20:30 - 21:00 | 15.7 | 15.8 | 15.6 | 100 | 0.0 | 5.8 | 240 | 9.0 | 1011.9 | 0 |
| 21:00 - 21:30 | 15.6 | 15.8 | 15.2 | 100 | 0.0 | 1.8 | 249 | 5.0 | 1011.9 | 0 |
| 21:30 - 22:00 | 15.5 | 15.7 | 15.2 | 100 | 0.1 | 3.6 | 235 | 13.0 | 1011.4 | 0 |
Les dades en taronja només han passat un control de qualitat automàtic. Resta pendent la seva validació definitiva.